createdAt,value
2023-04-02T00:00:10.508Z,97.80
2023-04-02T00:03:09.955Z,98.24
2023-04-02T00:05:51.917Z,99.02
2023-04-02T00:08:25.698Z,98.50
2023-04-02T00:11:01.986Z,98.49
2023-04-02T00:13:33.054Z,98.78
2023-04-02T00:16:04.560Z,98.30
2023-04-02T00:18:34.331Z,98.41
2023-04-02T00:21:21.843Z,98.32
2023-04-02T00:23:50.602Z,98.21
2023-04-02T00:26:33.119Z,99.40
2023-04-02T00:29:03.495Z,99.56
2023-04-02T00:31:33.206Z,99.28
2023-04-02T00:34:04.967Z,99.36
2023-04-02T00:36:34.760Z,99.90
2023-04-02T00:39:08.528Z,99.22
2023-04-02T00:41:38.942Z,99.07
2023-04-02T00:44:12.468Z,98.77
2023-04-02T00:46:49.938Z,98.35
2023-04-02T00:49:40.343Z,98.34
2023-04-02T00:52:10.795Z,98.33
2023-04-02T00:54:45.808Z,98.41
2023-04-02T00:57:25.698Z,98.32
2023-04-02T01:00:31.075Z,98.49
2023-04-02T01:03:34.894Z,99.82
2023-04-02T01:06:14.430Z,99.42
2023-04-02T01:08:48.533Z,98.60
2023-04-02T01:11:35.353Z,99.17
2023-04-02T01:14:15.376Z,99.68
2023-04-02T01:17:04.076Z,99.83
2023-04-02T01:20:07.605Z,100.00
2023-04-02T01:22:48.128Z,100.00
2023-04-02T01:25:25.044Z,100.00
2023-04-02T01:28:09.606Z,100.00
2023-04-02T01:30:38.422Z,99.92
2023-04-02T01:33:07.349Z,99.44
2023-04-02T01:35:40.868Z,99.11
2023-04-02T01:38:27.491Z,98.98
2023-04-02T01:41:27.161Z,99.09
2023-04-02T01:44:07.922Z,99.65
2023-04-02T01:46:40.842Z,99.65
2023-04-02T01:49:14.125Z,99.82
2023-04-02T01:51:45.176Z,99.78
2023-04-02T01:54:18.139Z,99.52
2023-04-02T01:56:47.445Z,99.88
2023-04-02T01:59:20.265Z,100.00
2023-04-02T02:02:22.219Z,99.77
2023-04-02T02:04:51.143Z,99.61
2023-04-02T02:07:21.368Z,99.86
2023-04-02T02:09:53.271Z,99.22
2023-04-02T02:12:22.682Z,99.79
2023-04-02T02:14:52.539Z,99.56
2023-04-02T02:17:34.565Z,99.67
2023-04-02T02:20:11.098Z,99.82
2023-04-02T02:22:51.109Z,99.85
2023-04-02T02:25:26.904Z,99.24
2023-04-02T02:28:16.276Z,99.11
2023-04-02T02:30:51.124Z,99.57
2023-04-02T02:33:26.100Z,99.23
2023-04-02T02:36:22.907Z,99.64
2023-04-02T02:39:17.147Z,99.80
2023-04-02T02:42:01.304Z,99.28
2023-04-02T02:44:35.268Z,99.47
2023-04-02T02:47:06.994Z,100.00
2023-04-02T02:49:46.231Z,99.78
2023-04-02T02:52:21.647Z,99.93
2023-04-02T02:55:02.795Z,99.87
2023-04-02T02:57:48.385Z,100.00
2023-04-02T03:00:19.865Z,99.83
2023-04-02T03:02:50.145Z,99.96
2023-04-02T03:05:22.371Z,100.00
2023-04-02T03:07:55.580Z,99.97
2023-04-02T03:10:42.866Z,99.18
2023-04-02T03:13:29.518Z,97.72
2023-04-02T03:16:09.221Z,98.50
2023-04-02T03:18:41.793Z,98.66
2023-04-02T03:21:35.374Z,98.45
2023-04-02T03:24:12.461Z,99.59
2023-04-02T03:26:55.479Z,99.72
2023-04-02T03:29:28.091Z,99.24
2023-04-02T03:32:02.718Z,99.09
2023-04-02T03:34:56.771Z,98.79
2023-04-02T03:37:47.277Z,98.62
2023-04-02T03:40:22.491Z,99.10
2023-04-02T03:42:55.409Z,99.29
2023-04-02T03:45:28.621Z,98.46
2023-04-02T03:48:07.392Z,98.44
2023-04-02T03:50:36.180Z,98.53
2023-04-02T03:53:05.752Z,98.86
2023-04-02T03:55:38.170Z,99.09
2023-04-02T03:58:13.366Z,99.08
2023-04-02T04:01:00.610Z,99.03
2023-04-02T04:03:57.762Z,98.41
2023-04-02T04:06:35.110Z,99.65
2023-04-02T04:09:06.191Z,99.03
2023-04-02T04:11:39.545Z,98.66
2023-04-02T04:14:15.482Z,98.63
2023-04-02T04:16:55.988Z,98.07
2023-04-02T04:19:33.826Z,98.66
2023-04-02T04:22:34.060Z,98.24
2023-04-02T04:25:35.173Z,97.82
2023-04-02T04:28:38.586Z,97.33
2023-04-02T04:31:27.223Z,97.83
2023-04-02T04:34:03.900Z,98.15
2023-04-02T04:36:41.610Z,98.29
2023-04-02T04:39:18.451Z,97.97
2023-04-02T04:41:51.558Z,97.44
2023-04-02T04:44:52.467Z,97.37
2023-04-02T04:47:27.285Z,97.30
2023-04-02T04:50:04.119Z,97.06
2023-04-02T04:52:37.502Z,97.20
2023-04-02T04:55:44.954Z,97.12
2023-04-02T04:58:22.724Z,97.24
2023-04-02T05:01:23.619Z,97.02
2023-04-02T05:04:00.875Z,96.81
2023-04-02T05:06:35.529Z,96.64
2023-04-02T05:09:33.424Z,96.53
2023-04-02T05:12:18.336Z,96.29
2023-04-02T05:14:56.226Z,96.45
2023-04-02T05:17:36.203Z,96.43
2023-04-02T05:20:28.540Z,96.46
2023-04-02T05:23:25.128Z,96.56
2023-04-02T05:26:13.525Z,96.19
2023-04-02T05:28:58.747Z,95.78
2023-04-02T05:31:42.848Z,95.70
2023-04-02T05:34:13.362Z,95.57
2023-04-02T05:36:46.997Z,95.94
2023-04-02T05:39:22.277Z,95.75
2023-04-02T05:42:02.712Z,95.26
2023-04-02T05:44:56.288Z,95.65
2023-04-02T05:47:30.273Z,94.91
2023-04-02T05:50:05.911Z,94.92
2023-04-02T05:52:46.282Z,94.27
2023-04-02T05:55:17.351Z,94.36
2023-04-02T05:58:21.473Z,94.13
2023-04-02T06:00:54.144Z,94.33
2023-04-02T06:03:52.452Z,93.58
2023-04-02T06:06:36.085Z,92.95
2023-04-02T06:09:14.579Z,93.12
2023-04-02T06:11:52.017Z,92.66
2023-04-02T06:14:20.933Z,92.31
2023-04-02T06:16:50.224Z,92.74
2023-04-02T06:19:27.772Z,92.73
2023-04-02T06:22:07.515Z,92.90
2023-04-02T06:24:40.512Z,91.88
2023-04-02T06:27:13.174Z,92.28
2023-04-02T06:29:45.988Z,92.54
2023-04-02T06:32:22.439Z,92.19
2023-04-02T06:34:50.784Z,92.05
2023-04-02T06:37:40.326Z,90.83
2023-04-02T06:40:42.784Z,91.10
2023-04-02T06:43:36.474Z,89.26
2023-04-02T06:46:34.512Z,91.37
2023-04-02T06:49:23.506Z,91.72
2023-04-02T06:51:58.806Z,90.79
2023-04-02T06:54:27.179Z,88.62
2023-04-02T06:56:59.698Z,88.18
2023-04-02T06:59:32.466Z,87.11
2023-04-02T07:02:06.761Z,86.82
2023-04-02T07:04:35.474Z,87.67
2023-04-02T07:07:04.622Z,85.64
2023-04-02T07:09:36.618Z,86.21
2023-04-02T07:12:13.503Z,87.48
2023-04-02T07:14:42.673Z,87.36
2023-04-02T07:17:18.094Z,86.52
2023-04-02T07:19:49.741Z,86.89
2023-04-02T07:22:21.308Z,85.95
2023-04-02T07:24:53.576Z,83.77
2023-04-02T07:27:21.749Z,83.57
2023-04-02T07:29:49.931Z,85.03
2023-04-02T07:32:19.663Z,85.28
2023-04-02T07:34:49.041Z,82.87
2023-04-02T07:37:17.390Z,84.50
2023-04-02T07:39:45.640Z,83.45
2023-04-02T07:42:13.814Z,83.15
2023-04-02T07:44:41.990Z,81.01
2023-04-02T07:47:10.759Z,81.74
2023-04-02T07:49:39.073Z,78.85
2023-04-02T07:52:07.486Z,79.50
2023-04-02T07:54:40.015Z,78.72
2023-04-02T07:57:08.343Z,78.66
2023-04-02T07:59:36.556Z,77.58
2023-04-02T08:02:04.713Z,76.77
2023-04-02T08:04:32.837Z,77.75
2023-04-02T08:07:01.790Z,75.65
2023-04-02T08:09:29.981Z,75.49
2023-04-02T08:11:58.084Z,74.75
2023-04-02T08:14:26.405Z,74.49
2023-04-02T08:16:56.201Z,75.74
2023-04-02T08:19:24.773Z,74.56
2023-04-02T08:21:53.944Z,75.83
2023-04-02T08:24:22.862Z,75.10
2023-04-02T08:26:54.511Z,75.57
2023-04-02T08:29:23.163Z,75.48
2023-04-02T08:31:51.501Z,76.14
2023-04-02T08:34:19.708Z,76.31
2023-04-02T08:36:47.923Z,75.98
2023-04-02T08:39:16.210Z,73.83
2023-04-02T08:42:17.270Z,74.39
2023-04-02T08:45:24.374Z,74.53
2023-04-02T08:47:57.697Z,74.56
2023-04-02T08:50:34.196Z,75.21
2023-04-02T08:53:06.080Z,73.78
2023-04-02T08:55:56.104Z,75.00
2023-04-02T08:58:47.031Z,75.19
2023-04-02T09:01:42.672Z,75.08
2023-04-02T09:04:17.213Z,73.85
2023-04-02T09:06:46.322Z,74.06
2023-04-02T09:09:16.834Z,73.29
2023-04-02T09:11:56.460Z,73.88
2023-04-02T09:14:34.601Z,74.74
2023-04-02T09:17:04.637Z,74.90
2023-04-02T09:19:45.118Z,74.89
2023-04-02T09:22:22.640Z,74.94
2023-04-02T09:24:59.057Z,76.28
2023-04-02T09:27:33.076Z,76.95
2023-04-02T09:30:08.322Z,77.12
2023-04-02T09:32:46.627Z,76.90
2023-04-02T09:35:39.718Z,77.16
2023-04-02T09:38:07.998Z,76.85
2023-04-02T09:41:05.341Z,77.09
2023-04-02T09:43:38.801Z,76.83
2023-04-02T09:46:27.381Z,76.62
2023-04-02T09:49:00.940Z,76.62
2023-04-02T09:51:35.263Z,76.68
2023-04-02T09:54:03.528Z,76.91
2023-04-02T09:56:39.816Z,77.33
2023-04-02T09:59:13.733Z,78.10
2023-04-02T10:01:44.958Z,78.64
2023-04-02T10:04:46.013Z,78.21
2023-04-02T10:07:43.969Z,77.75
2023-04-02T10:10:31.825Z,77.82
2023-04-02T10:13:21.592Z,77.48
2023-04-02T10:16:05.993Z,77.51
2023-04-02T10:18:59.613Z,77.71
2023-04-02T10:21:37.488Z,77.15
2023-04-02T10:24:27.694Z,75.85
2023-04-02T10:26:59.677Z,76.92
2023-04-02T10:29:36.659Z,76.60
2023-04-02T10:32:41.581Z,77.89
2023-04-02T10:35:35.926Z,77.38
2023-04-02T10:38:19.482Z,76.69
2023-04-02T10:41:27.099Z,75.88
2023-04-02T10:44:19.918Z,75.00
2023-04-02T10:47:09.210Z,75.29
2023-04-02T10:49:49.384Z,75.32
2023-04-02T10:52:23.670Z,73.23
2023-04-02T10:54:58.358Z,73.29
2023-04-02T10:57:35.501Z,73.29
2023-04-02T11:00:16.229Z,73.14
2023-04-02T11:02:53.818Z,75.03
2023-04-02T11:05:49.392Z,74.88
2023-04-02T11:08:23.231Z,73.71
2023-04-02T11:11:10.028Z,74.51
2023-04-02T11:14:06.101Z,72.89
2023-04-02T11:16:36.165Z,71.87
2023-04-02T11:19:16.044Z,70.85
2023-04-02T11:21:57.374Z,71.74
2023-04-02T11:24:30.524Z,71.21
2023-04-02T11:27:08.022Z,67.48
2023-04-02T11:29:46.249Z,70.23
2023-04-02T11:32:20.697Z,71.46
2023-04-02T11:34:56.476Z,71.64
2023-04-02T11:37:37.702Z,72.06
2023-04-02T11:40:12.063Z,72.37
2023-04-02T11:42:44.574Z,73.20
2023-04-02T11:45:24.667Z,73.32
2023-04-02T11:48:02.068Z,73.45
2023-04-02T11:50:42.980Z,74.46
2023-04-02T11:53:14.915Z,75.07
2023-04-02T11:56:05.955Z,75.50
2023-04-02T11:58:51.743Z,75.53
2023-04-02T12:01:30.230Z,77.06
2023-04-02T12:04:17.315Z,76.32
2023-04-02T12:06:51.801Z,76.12
2023-04-02T12:09:25.620Z,75.63
2023-04-02T12:12:00.129Z,74.98
2023-04-02T12:14:51.414Z,74.12
2023-04-02T12:17:28.455Z,74.94
2023-04-02T12:20:08.491Z,74.96
2023-04-02T12:22:51.025Z,75.21
2023-04-02T12:25:19.221Z,74.53
2023-04-02T12:27:47.968Z,75.26
2023-04-02T12:30:24.096Z,74.68
2023-04-02T12:32:57.024Z,74.04
2023-04-02T12:35:33.486Z,73.94
2023-04-02T12:38:02.333Z,74.88
2023-04-02T12:40:30.694Z,72.68
2023-04-02T12:42:58.902Z,71.68
2023-04-02T12:45:32.460Z,69.82
2023-04-02T12:48:05.494Z,70.95
2023-04-02T12:50:34.808Z,71.23
2023-04-02T12:53:03.641Z,70.13
2023-04-02T12:55:33.717Z,69.58
2023-04-02T12:58:01.898Z,69.45
2023-04-02T13:00:32.053Z,68.93
2023-04-02T13:03:06.214Z,68.94
2023-04-02T13:05:50.200Z,69.25
2023-04-02T13:08:39.473Z,68.39
2023-04-02T13:11:07.893Z,68.61
2023-04-02T13:13:38.740Z,68.46
2023-04-02T13:16:25.937Z,68.90
2023-04-02T13:19:22.242Z,68.72
2023-04-02T13:21:51.847Z,69.20
2023-04-02T13:24:22.691Z,69.58
2023-04-02T13:26:53.908Z,70.07
2023-04-02T13:29:35.011Z,70.38
2023-04-02T13:32:12.741Z,70.44
2023-04-02T13:34:40.905Z,71.06
2023-04-02T13:37:13.015Z,71.60
2023-04-02T13:39:41.293Z,72.35
2023-04-02T13:42:11.950Z,72.94
2023-04-02T13:44:40.382Z,72.60
2023-04-02T13:47:14.178Z,73.10
2023-04-02T13:49:42.237Z,72.78
2023-04-02T13:52:16.080Z,72.40
2023-04-02T13:54:51.756Z,72.30
2023-04-02T13:57:19.961Z,72.42
2023-04-02T13:59:48.255Z,72.33
2023-04-02T14:02:20.542Z,71.89
2023-04-02T14:04:57.307Z,71.45
2023-04-02T14:07:34.611Z,71.14
2023-04-02T14:10:24.756Z,71.13
2023-04-02T14:13:31.154Z,70.96
2023-04-02T14:16:07.135Z,70.58
2023-04-02T14:18:57.067Z,70.14
2023-04-02T14:21:52.377Z,69.74
2023-04-02T14:24:27.204Z,69.45
2023-04-02T14:27:07.276Z,69.56
2023-04-02T14:29:42.678Z,69.43
2023-04-02T14:32:25.738Z,69.69
2023-04-02T14:35:08.880Z,70.06
2023-04-02T14:37:46.222Z,70.22
2023-04-02T14:40:20.208Z,69.86
2023-04-02T14:43:01.851Z,68.79
2023-04-02T14:45:49.164Z,70.21
2023-04-02T14:48:24.842Z,70.36
2023-04-02T14:51:12.753Z,71.24
2023-04-02T14:53:42.236Z,72.15
2023-04-02T14:56:13.222Z,72.37
2023-04-02T14:58:48.420Z,72.42
2023-04-02T15:01:25.600Z,72.20
2023-04-02T15:04:02.246Z,72.11
2023-04-02T15:06:41.825Z,71.94
2023-04-02T15:09:41.084Z,72.31
2023-04-02T15:12:17.263Z,72.20
2023-04-02T15:14:47.845Z,73.58
2023-04-02T15:17:16.189Z,74.22
2023-04-02T15:19:47.319Z,73.70
2023-04-02T15:22:39.476Z,73.66
2023-04-02T15:25:41.449Z,74.93
2023-04-02T15:28:27.023Z,75.37
2023-04-02T15:30:59.076Z,75.20
2023-04-02T15:33:44.696Z,75.04
2023-04-02T15:36:42.537Z,74.46
2023-04-02T15:39:26.260Z,74.33
2023-04-02T15:42:13.319Z,73.96
2023-04-02T15:45:13.925Z,74.80
2023-04-02T15:47:54.396Z,74.62
2023-04-02T15:50:42.054Z,75.50
2023-04-02T15:53:38.755Z,75.65
2023-04-02T15:56:28.444Z,76.30
2023-04-02T15:59:26.095Z,76.20
2023-04-02T16:02:07.181Z,76.82
2023-04-02T16:04:39.363Z,76.38
2023-04-02T16:07:22.764Z,76.34
2023-04-02T16:10:00.603Z,76.17
2023-04-02T16:12:30.893Z,76.01
2023-04-02T16:15:11.093Z,76.08
2023-04-02T16:17:44.581Z,76.53
2023-04-02T16:20:22.103Z,76.84
2023-04-02T16:23:11.574Z,76.57
2023-04-02T16:26:28.021Z,77.61
2023-04-02T16:29:02.372Z,78.88
2023-04-02T16:31:58.657Z,78.72
2023-04-02T16:34:39.005Z,77.74
2023-04-02T16:37:44.691Z,78.36
2023-04-02T16:40:57.128Z,77.51
2023-04-02T16:43:47.456Z,78.60
2023-04-02T16:46:46.670Z,79.24
2023-04-02T16:49:47.366Z,79.35
2023-04-02T16:52:47.410Z,79.46
2023-04-02T16:55:54.720Z,79.58
2023-04-02T16:58:41.409Z,79.94
2023-04-02T17:01:45.068Z,81.40
2023-04-02T17:04:27.622Z,79.79
2023-04-02T17:07:30.400Z,79.98
2023-04-02T17:10:17.280Z,81.03
2023-04-02T17:12:52.584Z,80.81
2023-04-02T17:15:28.411Z,81.27
2023-04-02T17:17:59.007Z,81.51
2023-04-02T17:20:28.308Z,81.56
2023-04-02T17:22:57.338Z,83.69
2023-04-02T17:25:35.211Z,83.21
2023-04-02T17:28:09.332Z,83.10
2023-04-02T17:30:54.615Z,84.14
2023-04-02T17:33:26.906Z,87.55
2023-04-02T17:36:16.696Z,86.12
2023-04-02T17:38:56.892Z,85.04
2023-04-02T17:41:41.329Z,85.60
2023-04-02T17:44:20.526Z,88.43
2023-04-02T17:46:58.756Z,88.33
2023-04-02T17:50:04.686Z,90.52
2023-04-02T17:52:53.474Z,88.83
2023-04-02T17:55:40.674Z,87.23
2023-04-02T17:58:27.173Z,87.56
2023-04-02T18:01:18.735Z,87.62
2023-04-02T18:04:05.886Z,88.07
2023-04-02T18:06:52.292Z,89.77
2023-04-02T18:09:41.572Z,89.47
2023-04-02T18:12:18.973Z,89.79
2023-04-02T18:14:55.810Z,87.58
2023-04-02T18:17:52.152Z,87.32
2023-04-02T18:20:28.351Z,88.69
2023-04-02T18:23:21.312Z,88.47
2023-04-02T18:25:52.450Z,88.54
2023-04-02T18:28:20.645Z,89.01
2023-04-02T18:30:59.082Z,89.27
2023-04-02T18:33:39.498Z,88.03
2023-04-02T18:36:29.370Z,90.10
2023-04-02T18:39:09.147Z,90.71
2023-04-02T18:41:57.290Z,92.70
2023-04-02T18:44:34.414Z,92.29
2023-04-02T18:47:15.813Z,91.18
2023-04-02T18:49:51.938Z,92.28
2023-04-02T18:52:21.574Z,91.91
2023-04-02T18:55:00.140Z,91.23
2023-04-02T18:57:38.630Z,92.65
2023-04-02T19:00:33.883Z,91.63
2023-04-02T19:03:02.180Z,90.95
2023-04-02T19:05:54.133Z,90.40
2023-04-02T19:08:34.306Z,90.85
2023-04-02T19:11:09.310Z,90.63
2023-04-02T19:13:37.533Z,90.38
2023-04-02T19:16:47.150Z,90.93
2023-04-02T19:19:22.167Z,90.20
2023-04-02T19:22:38.562Z,91.11
2023-04-02T19:25:23.258Z,91.53
2023-04-02T19:28:30.445Z,90.87
2023-04-02T19:31:11.096Z,91.32
2023-04-02T19:33:42.774Z,92.67
2023-04-02T19:36:39.305Z,93.18
2023-04-02T19:39:46.655Z,92.93
2023-04-02T19:42:30.601Z,92.30
2023-04-02T19:45:02.674Z,92.86
2023-04-02T19:47:31.375Z,91.73
2023-04-02T19:49:59.680Z,94.92
2023-04-02T19:52:27.866Z,92.67
2023-04-02T19:54:55.993Z,92.59
2023-04-02T19:57:24.514Z,92.63
2023-04-02T19:59:52.740Z,93.97
2023-04-02T20:02:21.004Z,93.33
2023-04-02T20:04:49.268Z,93.87
2023-04-02T20:07:17.455Z,93.58
2023-04-02T20:09:45.775Z,93.03
2023-04-02T20:12:13.980Z,93.53
2023-04-02T20:14:42.281Z,92.98
2023-04-02T20:17:10.538Z,93.35
2023-04-02T20:19:38.770Z,93.43
2023-04-02T20:22:06.987Z,93.74
2023-04-02T20:24:35.274Z,93.85
2023-04-02T20:27:03.413Z,93.40
2023-04-02T20:29:32.411Z,93.23
2023-04-02T20:32:00.480Z,95.07
2023-04-02T20:34:29.086Z,93.72
2023-04-02T20:36:58.089Z,92.93
2023-04-02T20:39:26.223Z,93.07
2023-04-02T20:41:55.718Z,93.07
2023-04-02T20:44:23.933Z,93.07
2023-04-02T20:46:52.124Z,92.86
2023-04-02T20:49:20.280Z,92.72
2023-04-02T20:51:49.588Z,91.96
2023-04-02T20:54:17.877Z,92.39
2023-04-02T20:56:46.026Z,92.13
2023-04-02T20:59:14.221Z,91.63
2023-04-02T21:01:42.794Z,92.90
2023-04-02T21:04:11.547Z,92.56
2023-04-02T21:06:40.808Z,93.17
2023-04-02T21:09:15.421Z,94.05
2023-04-02T21:11:44.539Z,94.31
2023-04-02T21:14:12.871Z,95.27
2023-04-02T21:16:41.986Z,94.72
2023-04-02T21:19:11.081Z,93.85
2023-04-02T21:21:40.533Z,94.29
2023-04-02T21:24:09.867Z,93.64
2023-04-02T21:26:40.680Z,93.94
2023-04-02T21:29:10.945Z,94.04
2023-04-02T21:31:40.893Z,94.03
2023-04-02T21:34:12.999Z,94.07
2023-04-02T21:36:44.257Z,94.12
2023-04-02T21:39:18.108Z,94.87
2023-04-02T21:41:50.235Z,95.08
2023-04-02T21:44:21.135Z,95.53
2023-04-02T21:46:52.171Z,94.87
2023-04-02T21:49:23.581Z,94.85
2023-04-02T21:51:52.401Z,94.94
2023-04-02T21:54:20.701Z,93.97
2023-04-02T21:56:49.708Z,94.54
2023-04-02T21:59:18.670Z,94.46
2023-04-02T22:01:50.049Z,95.09
2023-04-02T22:04:21.713Z,94.73
2023-04-02T22:06:52.314Z,94.55
2023-04-02T22:09:26.265Z,94.14
2023-04-02T22:12:00.501Z,95.77
2023-04-02T22:14:29.576Z,95.92
2023-04-02T22:16:59.068Z,95.15
2023-04-02T22:19:27.650Z,94.85
2023-04-02T22:21:56.905Z,95.36
2023-04-02T22:24:25.506Z,95.03
2023-04-02T22:26:54.310Z,94.47
2023-04-02T22:29:22.538Z,94.37
2023-04-02T22:31:51.220Z,94.16
2023-04-02T22:34:19.516Z,94.63
2023-04-02T22:36:47.618Z,94.73
2023-04-02T22:39:17.092Z,94.59
2023-04-02T22:41:45.384Z,94.58
2023-04-02T22:44:15.533Z,94.67
2023-04-02T22:46:43.889Z,95.37
2023-04-02T22:49:12.522Z,95.55
2023-04-02T22:51:40.993Z,95.40
2023-04-02T22:54:09.152Z,94.76
2023-04-02T22:56:37.804Z,94.79
2023-04-02T22:59:06.094Z,94.60
2023-04-02T23:01:35.851Z,94.25
2023-04-02T23:04:05.454Z,93.97
2023-04-02T23:06:34.000Z,93.92
2023-04-02T23:09:02.273Z,94.30
2023-04-02T23:11:30.404Z,93.91
2023-04-02T23:13:59.231Z,93.83
2023-04-02T23:16:29.401Z,93.62
2023-04-02T23:18:58.370Z,94.06
2023-04-02T23:21:27.058Z,94.90
2023-04-02T23:23:55.473Z,94.92
2023-04-02T23:26:29.338Z,94.65
2023-04-02T23:28:59.097Z,95.33
2023-04-02T23:31:28.267Z,94.80
2023-04-02T23:33:56.459Z,94.88
2023-04-02T23:36:28.052Z,94.69
2023-04-02T23:39:01.420Z,96.88
2023-04-02T23:41:31.064Z,96.00
2023-04-02T23:43:59.781Z,95.93
2023-04-02T23:46:29.450Z,95.77
2023-04-02T23:48:59.614Z,96.38
2023-04-02T23:51:29.240Z,96.41
2023-04-02T23:53:57.499Z,95.80
2023-04-02T23:56:26.107Z,95.07
2023-04-02T23:58:54.336Z,95.06
